Tropical Cyclones
[Index]
Main Index Home Page Stock Weather Photos Extreme Storms Discussion Storm News and Storm Chasing Reports Tropical Cyclones / Hurricanes / Typhoons Weather Data and Links Wild Fires / Bushfires Weather Observation Techniques Weather Picture Catalogue Tornado Pictures and Reports Stock Video Footage and DVDs for sale
Season 2003-2004 Tropical Cyclone IVY Track Map
Season 2003-2004 Summaries: [BoM-AU] [JTWC-AU] [JTWC-SIO] [JTWC-SPAC] [JTWC-SH]
<<- Previous TC | JTWC 2003-2004 Season | Next TC ->>

click for intensity scale information  Lat/long Grid: Show Hide

 Date Labels: Show Hide

Joint Typhoon Warning Centre Cyclone Data

Name: IVY

21 Feb 2004 00:00 UTC to 29 Feb 2004 06:00 UTC

    date/time    lat    long     hPa   cat  kts
2004-02-21 00   15.4   172.2    1004         20          
2004-02-21 06   15.8   172.0    1004         20          
2004-02-21 12   16.1   172.2    1004         20          
2004-02-21 18   16.4   172.7    1002         25          
2004-02-22 00   16.3   173.3    1000         30          
2004-02-22 06   16.1   173.8    1002         25          
2004-02-22 12   15.5   173.8    1000         30          
2004-02-22 18   15.1   173.3     997         35          
2004-02-23 00   14.7   172.5     994    1    40          
2004-02-23 06   14.3   171.7     991    1    45          
2004-02-23 12   13.9   171.0     984    2    55          
2004-02-23 12   13.9   171.0     984    2    55          
2004-02-23 18   13.6   170.3     972    2    70          
2004-02-23 18   13.6   170.3     972    2    70          
2004-02-24 00   13.4   169.6     967    3    75          
2004-02-24 00   13.4   169.6     967    3    75          
2004-02-24 06   13.7   169.1     967    3    75          
2004-02-24 06   13.7   169.1     967    3    75          
2004-02-24 12   14.0   168.7     954    3    90          
2004-02-24 12   14.0   168.7     954    3    90          
2004-02-24 18   14.4   168.3     954    3    85          
2004-02-24 18   14.4   168.3     954    3    85          
2004-02-25 00   14.9   167.9     958    3    85          
2004-02-25 00   14.9   167.9     958    3    85          
2004-02-25 06   15.4   167.7     954    3    90          
2004-02-25 06   15.4   167.7     954    3    90          
2004-02-25 12   15.9   167.7     949    3    95          
2004-02-25 12   15.9   167.7     949    3    95          
2004-02-25 18   16.4   167.8     938    4   105          
2004-02-25 18   16.4   167.8     938    4   105          
2004-02-25 18   16.4   167.8     938    4   105          
2004-02-26 00   17.0   168.0     938    4   105          
2004-02-26 00   17.0   168.0     938    4   105          
2004-02-26 00   17.0   168.0     938    4   105          
2004-02-26 06   17.7   168.3     944    4   100          
2004-02-26 06   17.7   168.3     944    4   100          
2004-02-26 12   18.6   168.6     944    4   100          
2004-02-26 12   18.6   168.6     944    4   100          
2004-02-26 18   19.3   168.9     938    4   105          
2004-02-26 18   19.3   168.9     938    4   105          
2004-02-26 18   19.3   168.9     938    4   105          
2004-02-27 00   20.1   169.1     944    4   100          
2004-02-27 00   20.1   169.1     944    4   100          
2004-02-27 06   21.3   169.4     944    4   100          
2004-02-27 06   21.3   169.4     944    4   100          
2004-02-27 12   22.6   169.9     944    4   100          
2004-02-27 12   22.6   169.9     944    4   100          
2004-02-27 18   24.3   170.7     944    4   100          
2004-02-27 18   24.3   170.7     944    4   100          
2004-02-28 00   26.3   171.9     954    3    90          
2004-02-28 00   26.3   171.9     954    3    90          
2004-02-28 06   28.7   173.1     958    3    85          
2004-02-28 06   28.7   173.1     958    3    85          
2004-02-28 12   31.1   174.7     967    3    75          
2004-02-28 12   31.1   174.7     967    3    75          
2004-02-28 18   34.4   176.9     984    2    55          
2004-02-28 18   34.4   176.9     984    2    55          
2004-02-29 00   37.1   179.0     987    1    50          
2004-02-29 06   40.3   178.2W    991    1    45          
Winds are 1-min average.

Tropical cyclone tracks developed by Michael Bath using data from the Joint Typhoon Warning Centre Best Tracks and Google Maps.


[Australian Severe Weather index] [Copyright Notice] [Email Contacts] [Search This Site] [Privacy Policy]
Document: tropical_cyclone_ivy.htm Updated: 28 June 2017